Time;durP1;ratioP1;P1;durP2;ratioP2;P2;SDS_P1;SDS_P2;PMS_P1;PMS_P2;Temp;Humidity;BMP_temperature;BMP_pressure;BME280_temperature;BME280_humidity;BME280_pressure;Samples;Min_cycle;Max_cycle;Signal;HPM_P1;HPM_P2
2024/03/27 00:01:38;;;;;;;10.50;4.60;;;;;;;7.55;100.00;94473.28;5063083;28;20045;-65
2024/03/27 00:04:04;;;;;;;8.38;4.13;;;;;;;7.70;100.00;94484.78;5059926;28;20032;-65
2024/03/27 00:06:30;;;;;;;8.07;4.35;;;;;;;7.83;100.00;94476.97;5066070;28;20032;-65
2024/03/27 00:08:55;;;;;;;8.38;4.25;;;;;;;7.97;100.00;94490.38;5055947;28;20562;-65
2024/03/27 00:11:24;;;;;;;10.35;4.63;;;;;;;7.97;100.00;94480.41;5072912;28;20127;-65
2024/03/27 00:13:50;;;;;;;9.65;4.55;;;;;;;8.02;100.00;94472.19;5059150;28;20040;-65
2024/03/27 00:16:16;;;;;;;8.80;4.32;;;;;;;8.11;100.00;94469.53;5065669;28;20388;-65
2024/03/27 00:18:42;;;;;;;8.82;4.55;;;;;;;8.12;100.00;94460.38;5065614;28;20178;-65
2024/03/27 00:21:08;;;;;;;7.32;4.18;;;;;;;8.08;100.00;94459.41;5045042;28;20044;-65
2024/03/27 00:23:33;;;;;;;8.07;4.43;;;;;;;7.85;100.00;94453.22;5061147;28;20086;-65
2024/03/27 00:25:59;;;;;;;7.07;3.95;;;;;;;7.77;100.00;94446.66;5065230;28;20044;-66
2024/03/27 00:28:25;;;;;;;9.85;4.13;;;;;;;7.93;100.00;94441.72;5061332;28;20043;-66
2024/03/27 00:30:52;;;;;;;8.38;4.78;;;;;;;7.88;100.00;94434.53;5060198;28;20051;-66
2024/03/27 00:33:18;;;;;;;10.95;4.47;;;;;;;7.92;100.00;94434.72;5081508;28;20528;-65
2024/03/27 00:35:56;;;;;;;8.88;4.78;;;;;;;7.96;100.00;94437.63;5066349;28;20045;-66
2024/03/27 00:38:23;;;;;;;7.63;4.30;;;;;;;7.92;100.00;94423.94;5055749;28;20037;-65
2024/03/27 00:40:49;;;;;;;9.18;4.40;;;;;;;7.91;100.00;94416.97;5063530;28;20097;-66
2024/03/27 00:43:15;;;;;;;7.70;4.22;;;;;;;8.02;100.00;94406.72;5066789;28;20044;-66
2024/03/27 00:45:42;;;;;;;11.20;4.90;;;;;;;7.89;100.00;94398.41;5061223;28;20048;-65
2024/03/27 00:48:08;;;;;;;8.70;3.83;;;;;;;7.75;100.00;94392.31;5067983;28;20603;-65
2024/03/27 00:50:33;;;;;;;11.57;4.05;;;;;;;7.70;100.00;94393.22;5059010;28;20044;-66
2024/03/27 00:53:00;;;;;;;8.45;5.10;;;;;;;7.72;100.00;94377.56;5068994;28;20091;-65
2024/03/27 00:55:25;;;;;;;10.57;4.88;;;;;;;7.73;100.00;94378.34;5056534;28;20028;-66
2024/03/27 00:57:51;;;;;;;10.30;4.75;;;;;;;7.57;100.00;94380.63;5046323;28;20110;-66
2024/03/27 01:00:17;;;;;;;7.65;4.28;;;;;;;7.48;100.00;94384.06;5064423;28;20487;-66
2024/03/27 01:02:43;;;;;;;8.10;4.38;;;;;;;7.45;100.00;94382.00;5056359;28;20045;-66
2024/03/27 01:05:09;;;;;;;8.25;4.47;;;;;;;7.28;100.00;94382.66;5077487;28;20692;-66
2024/03/27 01:07:35;;;;;;;9.23;4.65;;;;;;;7.18;100.00;94389.06;5073629;28;20237;-65
2024/03/27 01:10:02;;;;;;;7.35;4.40;;;;;;;7.26;100.00;94377.56;5061485;28;20702;-66
2024/03/27 01:12:27;;;;;;;8.55;4.22;;;;;;;7.09;100.00;94367.47;5078778;28;20037;-66
2024/03/27 01:14:53;;;;;;;7.40;4.75;;;;;;;6.80;100.00;94368.63;5053296;28;20130;-65
2024/03/27 01:17:19;;;;;;;9.63;4.90;;;;;;;6.80;100.00;94362.44;5066387;28;20086;-66
2024/03/27 01:19:44;;;;;;;8.82;4.00;;;;;;;6.83;100.00;94354.59;5068687;28;20036;-65
2024/03/27 01:22:10;;;;;;;9.73;5.13;;;;;;;6.90;100.00;94354.94;5075593;28;20040;-66
2024/03/27 01:24:35;;;;;;;11.40;5.30;;;;;;;6.89;100.00;94355.25;5068884;28;20089;-66
2024/03/27 01:27:01;;;;;;;7.28;4.00;;;;;;;6.88;100.00;94351.78;5062209;28;20036;-65
2024/03/27 01:29:27;;;;;;;10.70;4.88;;;;;;;6.97;100.00;94353.75;5071982;28;20110;-65
2024/03/27 01:31:52;;;;;;;7.78;4.50;;;;;;;6.72;100.00;94350.53;5050577;28;20128;-66
2024/03/27 01:34:18;;;;;;;7.32;4.32;;;;;;;6.47;100.00;94353.44;5060838;28;20036;-66
2024/03/27 01:36:43;;;;;;;7.57;4.95;;;;;;;6.54;100.00;94353.03;5048565;28;20494;-65
2024/03/27 01:39:09;;;;;;;6.75;4.20;;;;;;;6.48;100.00;94349.66;5054505;28;20037;-66
2024/03/27 01:41:34;;;;;;;8.77;4.78;;;;;;;6.02;100.00;94347.84;5061363;28;20722;-66
2024/03/27 01:44:00;;;;;;;7.88;4.55;;;;;;;5.97;100.00;94351.44;5062350;28;20588;-66
2024/03/27 01:46:26;;;;;;;9.00;4.18;;;;;;;6.08;100.00;94357.44;5069024;28;20033;-65
2024/03/27 01:48:55;;;;;;;10.48;4.22;;;;;;;6.05;100.00;94361.50;5049371;28;20049;-65
2024/03/27 01:51:21;;;;;;;9.43;4.03;;;;;;;5.77;100.00;94376.75;5069887;28;20037;-66
2024/03/27 01:53:48;;;;;;;9.82;4.10;;;;;;;5.69;100.00;94370.16;5072075;28;20040;-65
2024/03/27 01:56:15;;;;;;;10.50;4.07;;;;;;;5.82;100.00;94366.72;5061178;28;20487;-65
2024/03/27 01:58:42;;;;;;;6.85;3.47;;;;;;;5.76;100.00;94353.69;5079568;28;20051;-65
2024/03/27 02:01:08;;;;;;;9.10;4.15;;;;;;;5.68;100.00;94350.56;5065426;28;20041;-65
2024/03/27 02:03:34;;;;;;;6.00;3.60;;;;;;;5.67;100.00;94356.22;5060231;28;20047;-65
2024/03/27 02:06:01;;;;;;;6.82;3.72;;;;;;;5.54;100.00;94353.25;5057926;28;20032;-65
2024/03/27 02:08:27;;;;;;;8.95;4.38;;;;;;;5.52;100.00;94355.41;5054650;28;20041;-66
2024/03/27 02:10:53;;;;;;;7.07;3.97;;;;;;;5.50;100.00;94354.91;5060756;28;20051;-66
2024/03/27 02:13:18;;;;;;;10.35;4.45;;;;;;;5.39;100.00;94350.81;5042423;28;20052;-66
2024/03/27 02:15:44;;;;;;;6.90;3.95;;;;;;;5.18;100.00;94359.16;5054216;28;20124;-66
2024/03/27 02:18:09;;;;;;;9.15;4.30;;;;;;;5.21;100.00;94363.97;5048942;28;20569;-66
2024/03/27 02:20:40;;;;;;;10.55;5.15;;;;;;;5.17;100.00;94361.03;5054535;28;20195;-66
2024/03/27 02:23:13;;;;;;;13.00;5.57;;;;;;;5.16;100.00;94356.78;5070565;28;20037;-65
2024/03/27 02:26:05;;;;;;;11.75;5.70;;;;;;;5.30;100.00;94350.66;5062495;28;20450;-66
2024/03/27 02:28:31;;;;;;;9.93;5.28;;;;;;;5.28;100.00;94342.94;5063304;28;20573;-66
2024/03/27 02:30:56;;;;;;;7.13;4.22;;;;;;;5.30;100.00;94345.28;5044323;28;20119;-66
2024/03/27 02:33:22;;;;;;;7.38;4.10;;;;;;;5.38;100.00;94344.63;5064464;28;20044;-65
2024/03/27 02:35:47;;;;;;;6.35;4.00;;;;;;;5.46;100.00;94335.91;5066241;28;20032;-66
2024/03/27 02:38:13;;;;;;;7.85;4.13;;;;;;;5.61;100.00;94334.06;5070039;28;20123;-66
2024/03/27 02:40:39;;;;;;;8.15;4.78;;;;;;;5.58;100.00;94318.56;5063811;28;20734;-65
2024/03/27 02:43:04;;;;;;;9.43;4.18;;;;;;;5.41;100.00;94327.94;5064788;28;20056;-65
2024/03/27 02:45:30;;;;;;;8.68;3.92;;;;;;;5.27;100.00;94322.53;5049012;28;20036;-65
2024/03/27 02:47:55;;;;;;;8.40;3.92;;;;;;;5.21;100.00;94318.34;5070439;28;20127;-66
2024/03/27 02:50:21;;;;;;;9.93;4.05;;;;;;;5.11;100.00;94316.63;5059005;28;20687;-65
2024/03/27 02:52:46;;;;;;;7.57;3.88;;;;;;;5.05;100.00;94307.88;5053361;28;20563;-66
2024/03/27 02:55:12;;;;;;;7.75;3.83;;;;;;;5.13;100.00;94305.63;5063087;28;20036;-66
2024/03/27 02:57:37;;;;;;;7.22;4.03;;;;;;;5.17;100.00;94306.63;5056157;28;20098;-66
2024/03/27 03:00:07;;;;;;;5.75;3.55;;;;;;;5.14;100.00;94307.19;5068488;28;20534;-66
2024/03/27 03:02:33;;;;;;;6.65;3.25;;;;;;;5.14;100.00;94304.50;5053812;28;20036;-65
2024/03/27 03:04:58;;;;;;;7.93;3.28;;;;;;;4.91;100.00;94297.06;5057873;28;20047;-66
2024/03/27 03:07:24;;;;;;;7.28;3.47;;;;;;;4.84;100.00;94287.81;5069130;28;20036;-66
2024/03/27 03:09:49;;;;;;;6.75;3.60;;;;;;;4.61;100.00;94287.63;5061110;28;20123;-66
2024/03/27 03:12:15;;;;;;;7.57;3.70;;;;;;;4.65;100.00;94280.59;5066074;28;20063;-65
2024/03/27 03:14:40;;;;;;;6.65;3.92;;;;;;;4.65;100.00;94286.72;5066712;28;20515;-65
2024/03/27 03:17:06;;;;;;;7.18;3.47;;;;;;;4.64;100.00;94276.34;5058841;28;20650;-66
2024/03/27 03:19:34;;;;;;;5.80;3.17;;;;;;;4.67;100.00;94273.84;5071177;28;20080;-65
2024/03/27 03:21:59;;;;;;;7.55;3.63;;;;;;;4.62;100.00;94262.41;5063950;28;20048;-66
2024/03/27 03:24:25;;;;;;;9.45;3.45;;;;;;;4.54;100.00;94250.47;5063092;28;20144;-65
2024/03/27 03:26:51;;;;;;;11.18;3.83;;;;;;;4.48;100.00;94236.34;5071511;28;20040;-65
2024/03/27 03:29:16;;;;;;;10.57;3.50;;;;;;;4.53;100.00;94222.88;5056827;28;20539;-65
2024/03/27 03:31:42;;;;;;;10.98;3.80;;;;;;;4.36;100.00;94209.19;5062505;28;20076;-66
2024/03/27 03:34:07;;;;;;;5.88;3.40;;;;;;;4.13;100.00;94220.47;5060493;28;20037;-65
2024/03/27 03:36:33;;;;;;;7.35;3.95;;;;;;;4.13;100.00;94230.41;5076928;28;20066;-65
2024/03/27 03:38:59;;;;;;;8.18;3.78;;;;;;;4.12;100.00;94224.25;5067125;28;20053;-65
2024/03/27 03:41:24;;;;;;;6.53;3.55;;;;;;;4.25;100.00;94212.03;5060538;28;20304;-65
2024/03/27 03:43:50;;;;;;;6.72;3.38;;;;;;;3.92;100.00;94216.47;5054058;28;20881;-66
2024/03/27 03:46:15;;;;;;;7.15;3.45;;;;;;;3.80;100.00;94228.41;5058625;28;20061;-65
2024/03/27 03:48:41;;;;;;;8.02;3.65;;;;;;;3.79;100.00;94224.13;5065073;28;20036;-65
2024/03/27 03:51:06;;;;;;;6.55;3.53;;;;;;;3.83;100.00;94219.03;5057704;28;20112;-65
2024/03/27 03:53:32;;;;;;;6.90;4.18;;;;;;;3.99;100.00;94223.09;5057531;28;20037;-65
2024/03/27 03:55:57;;;;;;;7.50;4.20;;;;;;;3.91;100.00;94229.09;5066718;28;20040;-65
2024/03/27 03:58:23;;;;;;;10.32;4.40;;;;;;;3.83;100.00;94232.41;5054534;28;20496;-65
2024/03/27 04:00:50;;;;;;;7.88;3.65;;;;;;;3.77;100.00;94237.78;5058913;28;20040;-65
2024/03/27 04:03:15;;;;;;;7.88;3.97;;;;;;;3.60;100.00;94262.34;5049178;28;20091;-65
2024/03/27 04:05:41;;;;;;;9.60;4.38;;;;;;;3.45;100.00;94270.53;5047772;28;20706;-65
2024/03/27 04:08:06;;;;;;;10.02;4.18;;;;;;;3.57;100.00;94273.63;5045275;28;20045;-65
2024/03/27 04:10:38;;;;;;;6.65;4.35;;;;;;;3.52;100.00;94268.31;5045513;28;20496;-65
2024/03/27 04:13:04;;;;;;;;;;;;;;;3.37;100.00;94263.94;5045462;28;20052;-66
2024/03/27 04:15:29;;;;;;;9.05;4.60;;;;;;;3.38;100.00;94260.97;5058531;28;19920;-65
2024/03/27 04:17:55;;;;;;;8.45;4.25;;;;;;;3.69;100.00;94245.66;5068379;28;20543;-65
2024/03/27 04:20:21;;;;;;;11.70;5.70;;;;;;;3.77;100.00;94237.78;5043043;28;20041;-65
2024/03/27 04:22:46;;;;;;;10.25;5.40;;;;;;;3.65;100.00;94218.69;5046464;28;20053;-65
2024/03/27 04:25:12;;;;;;;9.02;4.70;;;;;;;3.49;100.00;94229.56;5045597;28;20032;-65
2024/03/27 04:27:38;;;;;;;10.73;4.90;;;;;;;3.14;100.00;94239.56;5064218;28;21686;-65
2024/03/27 04:30:04;;;;;;;11.25;5.45;;;;;;;3.04;100.00;94239.63;5068928;28;20424;-64
2024/03/27 04:32:29;;;;;;;8.82;4.85;;;;;;;3.05;100.00;94238.53;5063409;28;20039;-66
2024/03/27 04:34:55;;;;;;;9.95;5.15;;;;;;;2.98;100.00;94247.69;5048999;28;20135;-64
2024/03/27 04:37:20;;;;;;;11.05;5.30;;;;;;;2.99;100.00;94251.97;5064497;28;20032;-65
2024/03/27 04:39:46;;;;;;;11.73;5.30;;;;;;;3.16;100.00;94256.09;5052480;28;20051;-64
2024/03/27 04:42:13;;;;;;;11.40;5.32;;;;;;;3.26;100.00;94257.88;5057866;28;20036;-65
2024/03/27 04:44:39;;;;;;;10.25;5.03;;;;;;;3.31;100.00;94251.69;5061758;28;20577;-65
2024/03/27 04:47:05;;;;;;;11.55;5.97;;;;;;;3.30;100.00;94248.22;5054454;28;20064;-65
2024/03/27 04:49:30;;;;;;;9.57;4.97;;;;;;;3.23;100.00;94256.56;5056682;28;20668;-65
2024/03/27 04:51:56;;;;;;;13.57;4.80;;;;;;;3.05;100.00;94251.91;5058985;28;20040;-64
2024/03/27 04:54:22;;;;;;;10.23;5.10;;;;;;;3.03;100.00;94256.75;5047469;28;20123;-64
2024/03/27 04:56:47;;;;;;;11.45;4.80;;;;;;;3.08;100.00;94246.81;5061583;28;20040;-65
2024/03/27 04:59:13;;;;;;;11.07;4.68;;;;;;;3.38;100.00;94241.44;5052986;28;20146;-65
2024/03/27 05:01:39;;;;;;;9.15;4.70;;;;;;;3.70;100.00;94223.97;5060777;28;20546;-66
2024/03/27 05:04:04;;;;;;;7.07;3.95;;;;;;;3.30;100.00;94236.72;5059075;28;20050;-65
2024/03/27 05:06:30;;;;;;;8.38;3.90;;;;;;;3.17;100.00;94238.97;5054707;28;20542;-65
2024/03/27 05:08:55;;;;;;;7.80;4.63;;;;;;;3.23;100.00;94245.88;5054576;28;20049;-65
2024/03/27 05:11:21;;;;;;;8.13;4.10;;;;;;;3.16;100.00;94234.72;5059480;28;20036;-64
2024/03/27 05:13:46;;;;;;;9.25;4.30;;;;;;;3.19;100.00;94228.00;5073422;28;20451;-65
2024/03/27 05:16:16;;;;;;;9.13;4.53;;;;;;;3.19;100.00;94231.47;5067122;28;20515;-65
2024/03/27 05:18:41;;;;;;;13.40;4.95;;;;;;;3.35;100.00;94236.66;5056120;28;20037;-66
2024/03/27 05:21:08;;;;;;;10.55;5.45;;;;;;;3.54;100.00;94235.94;5055467;28;20557;-65
2024/03/27 05:23:36;;;;;;;7.60;4.70;;;;;;;3.67;100.00;94221.06;5054472;28;20048;-65
2024/03/27 05:26:03;;;;;;;9.35;4.25;;;;;;;3.48;100.00;94213.78;5061841;28;20567;-65
2024/03/27 05:28:29;;;;;;;9.10;4.50;;;;;;;3.68;100.00;94209.28;5055529;28;20040;-65
2024/03/27 05:30:55;;;;;;;9.32;4.68;;;;;;;3.74;100.00;94210.81;5048629;28;20203;-66
2024/03/27 05:33:20;;;;;;;9.30;5.05;;;;;;;3.60;100.00;94214.19;5047913;28;20420;-66
2024/03/27 05:35:46;;;;;;;7.28;3.55;;;;;;;3.56;100.00;94228.41;5048630;28;20508;-66
2024/03/27 05:38:13;;;;;;;6.50;4.10;;;;;;;3.67;100.00;94221.88;5051322;28;20094;-65
2024/03/27 05:40:38;;;;;;;11.48;4.20;;;;;;;3.85;100.00;94212.28;5050837;28;20045;-65
2024/03/27 05:43:04;;;;;;;9.43;4.43;;;;;;;3.93;100.00;94210.84;5042233;28;21119;-66
2024/03/27 05:45:29;;;;;;;8.65;4.25;;;;;;;3.93;100.00;94210.84;5058542;28;20058;-66
2024/03/27 05:47:55;;;;;;;8.02;4.57;;;;;;;4.04;100.00;94206.16;5057826;28;20186;-65
2024/03/27 05:50:21;;;;;;;10.23;4.82;;;;;;;4.02;100.00;94192.28;5049580;28;20056;-65
2024/03/27 05:52:46;;;;;;;11.77;4.88;;;;;;;4.15;100.00;94190.75;5050262;28;20079;-65
2024/03/27 05:55:12;;;;;;;10.63;5.10;;;;;;;4.30;100.00;94181.69;5050234;28;20048;-66
2024/03/27 05:57:38;;;;;;;10.85;5.10;;;;;;;4.32;100.00;94166.13;5052429;28;20037;-66
2024/03/27 06:00:08;;;;;;;13.60;5.15;;;;;;;4.23;100.00;94181.25;5053084;28;20831;-65
2024/03/27 06:02:37;;;;;;;13.88;5.90;;;;;;;4.27;100.00;94174.22;5057505;28;20095;-66
2024/03/27 06:05:04;;;;;;;8.38;5.10;;;;;;;4.64;100.00;94169.91;5052436;28;20052;-65
2024/03/27 06:07:30;;;;;;;8.13;4.68;;;;;;;4.58;100.00;94175.66;5063595;28;20039;-65
2024/03/27 06:09:56;;;;;;;9.65;5.22;;;;;;;4.50;100.00;94172.53;5064584;28;20635;-65
2024/03/27 06:12:21;;;;;;;10.05;5.18;;;;;;;4.61;100.00;94175.06;5057591;28;20028;-66
2024/03/27 06:14:47;;;;;;;11.45;6.00;;;;;;;4.59;100.00;94191.44;5059773;28;20455;-66
2024/03/27 06:17:12;;;;;;;8.43;5.75;;;;;;;4.60;100.00;94194.94;5072126;28;20505;-65
2024/03/27 06:19:38;;;;;;;13.90;5.82;;;;;;;4.78;100.00;94201.31;5057868;28;20178;-65
2024/03/27 06:22:04;;;;;;;11.68;5.63;;;;;;;4.85;100.00;94201.75;5052964;28;20102;-65
2024/03/27 06:24:29;;;;;;;9.00;5.72;;;;;;;4.91;100.00;94211.28;5061872;28;20518;-65
2024/03/27 06:26:55;;;;;;;9.05;5.50;;;;;;;4.92;100.00;94220.94;5054213;28;20083;-66
2024/03/27 06:29:20;;;;;;;10.88;5.10;;;;;;;5.07;100.00;94213.72;5060673;28;20120;-65
2024/03/27 06:31:46;;;;;;;11.00;5.20;;;;;;;5.18;100.00;94204.41;5063722;28;20040;-67
2024/03/27 06:34:12;;;;;;;11.07;5.28;;;;;;;5.31;100.00;94207.41;5058046;28;20036;-65
2024/03/27 06:36:37;;;;;;;11.70;5.05;;;;;;;5.40;100.00;94196.75;5061497;28;20041;-65
2024/03/27 06:39:03;;;;;;;12.38;5.85;;;;;;;5.48;100.00;94198.75;5047550;28;20048;-66
2024/03/27 06:41:29;;;;;;;10.20;5.32;;;;;;;5.56;100.00;94189.22;5056493;28;20094;-67
2024/03/27 06:43:54;;;;;;;11.18;5.30;;;;;;;5.57;100.00;94186.22;5059311;28;20396;-65
2024/03/27 06:46:20;;;;;;;11.55;5.65;;;;;;;5.56;100.00;94186.53;5063649;28;20082;-65
2024/03/27 06:48:56;;;;;;;14.43;6.50;;;;;;;5.59;100.00;94178.69;5062077;28;20785;-66
2024/03/27 06:51:22;;;;;;;12.40;6.45;;;;;;;5.80;100.00;94182.84;5059314;28;20507;-67
2024/03/27 06:53:48;;;;;;;10.95;5.95;;;;;;;6.03;100.00;94190.94;5055405;28;20045;-65
2024/03/27 06:56:14;;;;;;;17.02;6.22;;;;;;;6.26;100.00;94189.13;5042085;28;20067;-65
2024/03/27 06:58:40;;;;;;;9.43;4.78;;;;;;;6.38;100.00;94177.88;5060514;28;20043;-65
2024/03/27 07:01:05;;;;;;;11.18;5.13;;;;;;;6.55;100.00;94181.78;5059543;28;20423;-66
2024/03/27 07:03:33;;;;;;;15.40;5.70;;;;;;;6.53;100.00;94174.03;5049733;28;20091;-68
2024/03/27 07:05:59;;;;;;;12.52;5.50;;;;;;;6.53;100.00;94168.66;5070469;28;20044;-65
2024/03/27 07:08:24;;;;;;;12.18;4.78;;;;;;;6.78;100.00;94157.59;5061915;28;20558;-66
2024/03/27 07:11:03;;;;;;;9.70;4.45;;;;;;;6.98;100.00;94153.59;5060568;28;20044;-65
2024/03/27 07:13:29;;;;;;;10.05;4.53;;;;;;;7.13;100.00;94150.50;5052848;28;20099;-66
2024/03/27 07:15:55;;;;;;;9.52;4.70;;;;;;;7.29;100.00;94156.28;5042656;28;20037;-66
2024/03/27 07:18:21;;;;;;;8.63;4.05;;;;;;;7.48;100.00;94157.91;5073894;28;20048;-65
2024/03/27 07:20:57;;;;;;;5.93;3.28;;;;;;;7.68;100.00;94161.16;5067720;28;20507;-66
2024/03/27 07:23:23;;;;;;;7.40;3.45;;;;;;;7.85;100.00;94171.16;5044094;28;20043;-65
2024/03/27 07:25:49;;;;;;;7.57;3.70;;;;;;;7.99;100.00;94171.03;5049154;28;20036;-65
2024/03/27 07:28:14;;;;;;;10.20;3.85;;;;;;;8.06;100.00;94173.28;5059379;28;20036;-65
2024/03/27 07:30:40;;;;;;;6.93;2.97;;;;;;;8.11;100.00;94175.03;5059848;28;20419;-66
2024/03/27 07:33:06;;;;;;;6.70;3.42;;;;;;;8.06;100.00;94182.16;5066821;28;20051;-68
2024/03/27 07:35:32;;;;;;;7.93;3.25;;;;;;;8.28;100.00;94190.41;5072353;28;20040;-68
2024/03/27 07:37:58;;;;;;;6.75;2.92;;;;;;;8.43;100.00;94198.06;5063010;28;20044;-67
2024/03/27 07:40:27;;;;;;;5.22;2.65;;;;;;;8.50;100.00;94194.06;5066975;28;20047;-67
2024/03/27 07:42:53;;;;;;;5.75;2.90;;;;;;;8.57;100.00;94192.53;5054962;28;20522;-66
2024/03/27 07:45:19;;;;;;;6.68;3.38;;;;;;;8.54;100.00;94198.56;5059612;28;20564;-65
2024/03/27 07:47:44;;;;;;;5.80;2.92;;;;;;;8.93;100.00;94195.19;5063284;28;20044;-68
2024/03/27 07:50:10;;;;;;;8.63;3.30;;;;;;;9.16;100.00;94197.69;5042384;28;20040;-68
2024/03/27 07:52:37;;;;;;;6.35;3.10;;;;;;;9.16;100.00;94200.38;5057136;28;20531;-66
2024/03/27 07:55:03;;;;;;;8.80;3.42;;;;;;;9.33;100.00;94188.78;5052502;28;20048;-67
2024/03/27 07:57:28;;;;;;;8.20;3.20;;;;;;;9.17;100.00;94194.69;5048804;28;20045;-67
2024/03/27 07:59:54;;;;;;;7.22;3.42;;;;;;;9.17;100.00;94199.28;5065960;28;20043;-67
2024/03/27 08:02:19;;;;;;;6.10;3.10;;;;;;;9.11;100.00;94194.03;5064561;28;20404;-66
2024/03/27 08:04:45;;;;;;;9.52;2.97;;;;;;;9.11;100.00;94202.16;5060612;28;20127;-65
2024/03/27 08:07:10;;;;;;;6.78;3.17;;;;;;;9.48;100.00;94190.91;5067179;28;20056;-68
2024/03/27 08:09:36;;;;;;;5.38;3.33;;;;;;;9.72;100.00;94184.16;5060424;28;20595;-67
2024/03/27 08:12:02;;;;;;;9.55;3.80;;;;;;;9.85;100.00;94170.75;5068166;28;20059;-65
2024/03/27 08:14:27;;;;;;;8.85;2.97;;;;;;;9.96;100.00;94181.97;5069078;28;20090;-65
2024/03/27 08:16:53;;;;;;;9.73;3.53;;;;;;;10.15;100.00;94178.84;5050830;28;20413;-65
2024/03/27 08:19:18;;;;;;;6.43;3.00;;;;;;;10.25;100.00;94181.16;5053487;28;20681;-68
2024/03/27 08:21:44;;;;;;;7.28;3.17;;;;;;;10.49;100.00;94176.25;5059388;28;20045;-66
2024/03/27 08:24:10;;;;;;;5.43;2.85;;;;;;;10.28;100.00;94185.91;5067448;28;20119;-66
2024/03/27 08:26:35;;;;;;;7.15;3.30;;;;;;;10.33;100.00;94184.13;5050962;28;20051;-67
2024/03/27 08:29:02;;;;;;;8.57;3.22;;;;;;;10.24;100.00;94182.28;5065484;28;20119;-68
2024/03/27 08:31:27;;;;;;;8.18;3.78;;;;;;;10.19;100.00;94178.97;5060028;28;20040;-67
2024/03/27 08:33:53;;;;;;;7.78;3.47;;;;;;;10.34;100.00;94191.91;5067857;28;20052;-69
2024/03/27 08:36:19;;;;;;;7.03;3.53;;;;;;;10.41;100.00;94191.41;5072306;28;20132;-68
2024/03/27 08:38:45;;;;;;;7.90;3.97;;;;;;;10.68;100.00;94200.13;5046912;28;20045;-67
2024/03/27 08:41:10;;;;;;;5.63;3.10;;;;;;;10.96;100.00;94196.88;5056116;28;20146;-66
2024/03/27 08:43:36;;;;;;;6.57;3.20;;;;;;;11.21;100.00;94183.41;5064992;28;20041;-66
2024/03/27 08:46:02;;;;;;;8.68;3.30;;;;;;;11.44;100.00;94196.56;5063990;28;20127;-68
2024/03/27 08:48:28;;;;;;;7.55;3.85;;;;;;;11.20;100.00;94198.06;5062176;28;20036;-65
2024/03/27 08:50:53;;;;;;;6.13;3.15;;;;;;;11.21;100.00;94196.97;5062103;28;20062;-68
2024/03/27 08:53:19;;;;;;;6.07;3.38;;;;;;;11.18;100.00;94211.16;5065672;28;20044;-66
2024/03/27 08:55:44;;;;;;;6.72;2.80;;;;;;;11.11;100.00;94219.03;5069976;28;20044;-67
2024/03/27 08:58:10;;;;;;;8.75;3.88;;;;;;;10.80;100.00;94229.94;5061931;28;20044;-65
2024/03/27 09:00:37;;;;;;;8.30;4.32;;;;;;;11.01;100.00;94231.84;5062093;28;20047;-66
2024/03/27 09:03:04;;;;;;;9.98;3.38;;;;;;;11.10;100.00;94249.94;5070747;28;20049;-67
2024/03/27 09:05:32;;;;;;;7.32;3.45;;;;;;;11.02;100.00;94252.38;5074872;28;20879;-67
2024/03/27 09:07:58;;;;;;;6.88;3.45;;;;;;;10.88;100.00;94252.66;5056654;28;20048;-67
2024/03/27 09:10:25;;;;;;;11.20;3.72;;;;;;;10.74;100.00;94244.00;5058034;28;20056;-67
2024/03/27 09:12:51;;;;;;;7.03;3.50;;;;;;;11.06;100.00;94274.19;5059644;28;20101;-67
2024/03/27 09:15:17;;;;;;;8.38;3.83;;;;;;;11.04;100.00;94252.06;5059191;28;20049;-69
2024/03/27 09:17:42;;;;;;;7.03;3.53;;;;;;;11.24;100.00;94257.78;5063464;28;20056;-65
2024/03/27 09:20:09;;;;;;;8.10;4.53;;;;;;;11.18;100.00;94251.78;5065864;28;20052;-68
2024/03/27 09:22:35;;;;;;;10.02;3.75;;;;;;;11.34;100.00;94251.94;5068347;28;20554;-67
2024/03/27 09:25:01;;;;;;;6.33;3.60;;;;;;;11.17;100.00;94250.97;5067386;28;20040;-67
2024/03/27 09:27:27;;;;;;;7.95;3.80;;;;;;;11.51;100.00;94237.44;5062437;28;20241;-66
2024/03/27 09:29:54;;;;;;;8.05;3.33;;;;;;;11.78;100.00;94243.34;5059178;28;20098;-66
2024/03/27 09:32:20;;;;;;;15.05;4.28;;;;;;;11.97;100.00;94248.22;5071427;28;20039;-67
2024/03/27 09:34:46;;;;;;;9.30;3.55;;;;;;;12.02;100.00;94268.88;5067127;28;20044;-68
2024/03/27 09:37:13;;;;;;;6.22;3.80;;;;;;;12.19;100.00;94269.84;5063207;28;20044;-66
2024/03/27 09:39:38;;;;;;;7.18;3.22;;;;;;;11.88;100.00;94268.44;5068778;28;20114;-66
2024/03/27 09:42:05;;;;;;;7.90;3.85;;;;;;;12.10;100.00;94288.94;5060491;28;20049;-67
2024/03/27 09:44:31;;;;;;;7.32;3.67;;;;;;;12.20;100.00;94299.34;5072431;28;20046;-65
2024/03/27 09:47:00;;;;;;;6.28;3.55;;;;;;;12.63;100.00;94309.94;5062971;28;20102;-66
2024/03/27 09:49:28;;;;;;;7.53;3.80;;;;;;;12.07;100.00;94309.41;5061921;28;20768;-66
2024/03/27 09:51:57;;;;;;;7.15;4.20;;;;;;;11.97;100.00;94299.75;5059736;28;20109;-66
2024/03/27 09:54:26;;;;;;;7.30;3.97;;;;;;;12.28;100.00;94294.16;5076111;28;20051;-65
2024/03/27 09:56:56;;;;;;;7.90;4.18;;;;;;;12.26;100.00;94299.91;5060508;28;20052;-68
2024/03/27 09:59:23;;;;;;;10.75;5.43;;;;;;;11.64;100.00;94303.28;5061605;28;20077;-65
2024/03/27 10:02:05;;;;;;;8.98;5.22;;;;;;;11.57;100.00;94303.03;5061287;28;20071;-67
2024/03/27 10:04:31;;;;;;;9.02;4.80;;;;;;;12.07;100.00;94305.88;5055850;28;20606;-66
2024/03/27 10:06:57;;;;;;;7.72;4.45;;;;;;;12.41;100.00;94294.91;5058666;28;20119;-67
2024/03/27 10:09:23;;;;;;;8.15;4.75;;;;;;;12.31;100.00;94298.91;5063278;28;20101;-66
2024/03/27 10:11:49;;;;;;;10.65;4.75;;;;;;;12.49;100.00;94311.09;5059935;28;20495;-67
2024/03/27 10:14:15;;;;;;;8.32;5.07;;;;;;;12.54;100.00;94320.94;5058596;28;20096;-67
2024/03/27 10:16:41;;;;;;;12.00;5.32;;;;;;;12.21;100.00;94343.53;5056857;28;20065;-67
2024/03/27 10:19:07;;;;;;;7.95;4.35;;;;;;;11.60;100.00;94325.97;5051513;28;20539;-66
2024/03/27 10:21:33;;;;;;;7.88;4.93;;;;;;;11.41;100.00;94324.53;5065279;28;20075;-66
2024/03/27 10:23:59;;;;;;;6.68;4.65;;;;;;;11.47;100.00;94317.81;5057899;28;20052;-68
2024/03/27 10:26:29;;;;;;;7.35;4.72;;;;;;;11.59;100.00;94303.50;5068828;28;20041;-67
2024/03/27 10:28:58;;;;;;;6.47;4.13;;;;;;;12.03;100.00;94308.44;5064433;28;20040;-66
2024/03/27 10:31:27;;;;;;;6.28;4.40;;;;;;;11.65;100.00;94334.66;5064303;28;20127;-67
2024/03/27 10:33:53;;;;;;;7.70;4.50;;;;;;;11.52;100.00;94331.13;5059655;28;20055;-68
2024/03/27 10:36:26;;;;;;;7.03;4.40;;;;;;;11.49;100.00;94341.81;5065302;28;20588;-67
2024/03/27 10:38:56;;;;;;;9.38;5.13;;;;;;;11.17;100.00;94356.59;5038052;28;20055;-66
2024/03/27 10:41:26;;;;;;;5.97;4.25;;;;;;;11.09;100.00;94359.38;5055119;28;20102;-66
2024/03/27 10:43:58;;;;;;;8.27;5.22;;;;;;;10.72;100.00;94366.13;5065951;28;20068;-67
2024/03/27 10:46:25;;;;;;;8.73;5.10;;;;;;;10.62;100.00;94361.88;5061549;28;20571;-69
2024/03/27 10:48:51;;;;;;;7.72;5.57;;;;;;;10.28;100.00;94360.88;5067535;28;20550;-69
2024/03/27 10:51:19;;;;;;;9.95;4.82;;;;;;;10.03;100.00;94360.66;5058201;28;20041;-66
2024/03/27 10:53:45;;;;;;;6.30;4.07;;;;;;;10.46;100.00;94347.34;5062405;28;20041;-68
2024/03/27 10:56:12;;;;;;;6.78;4.32;;;;;;;10.68;100.00;94364.41;5064307;28;20114;-66
2024/03/27 10:58:38;;;;;;;6.15;4.57;;;;;;;10.61;100.00;94378.44;5065587;28;20040;-66
2024/03/27 11:01:05;;;;;;;9.70;4.65;;;;;;;10.01;100.00;94381.81;5049241;28;20044;-67
2024/03/27 11:03:30;;;;;;;7.38;4.90;;;;;;;9.42;100.00;94375.84;5051080;28;20099;-67
2024/03/27 11:05:59;;;;;;;8.80;4.80;;;;;;;9.45;100.00;94396.03;5052482;28;20053;-69
2024/03/27 11:08:29;;;;;;;7.35;3.85;;;;;;;8.85;100.00;94399.94;5051175;28;20090;-66
2024/03/27 11:11:05;;;;;;;8.80;5.25;;;;;;;8.78;100.00;94401.50;5056690;28;20633;-65
2024/03/27 11:13:31;;;;;;;8.43;4.07;;;;;;;8.86;100.00;94411.53;5047985;28;20481;-66
2024/03/27 11:15:56;;;;;;;7.82;4.00;;;;;;;8.37;100.00;94417.66;5042384;28;20041;-68
2024/03/27 11:18:28;;;;;;;7.82;3.65;;;;;;;8.29;100.00;94426.53;5056161;28;20083;-68
2024/03/27 11:20:55;;;;;;;5.82;3.70;;;;;;;8.22;100.00;94434.28;5051910;28;20079;-67
2024/03/27 11:23:35;;;;;;;7.75;3.65;;;;;;;8.28;100.00;94430.31;5046494;28;20114;-68
2024/03/27 11:26:03;;;;;;;6.75;2.85;;;;;;;8.21;100.00;94441.53;5045039;28;20048;-67